createdAt,value
2018-09-04T00:01:10.915Z,74.80
2018-09-04T00:03:40.524Z,75.90
2018-09-04T00:06:09.206Z,74.80
2018-09-04T00:08:37.825Z,73.90
2018-09-04T00:11:06.517Z,73.10
2018-09-04T00:13:35.159Z,72.80
2018-09-04T00:16:08.739Z,72.30
2018-09-04T00:18:37.948Z,72.60
2018-09-04T00:21:06.792Z,73.20
2018-09-04T00:23:35.467Z,73.70
2018-09-04T00:26:04.272Z,73.90
2018-09-04T00:28:32.889Z,74.50
2018-09-04T00:31:01.565Z,74.60
2018-09-04T00:33:30.212Z,74.30
2018-09-04T00:35:58.848Z,74.80
2018-09-04T00:38:27.508Z,75.40
2018-09-04T00:40:56.177Z,76.30
2018-09-04T00:43:24.977Z,76.80
2018-09-04T00:45:53.622Z,77.10
2018-09-04T00:48:22.281Z,77.30
2018-09-04T00:50:51.581Z,77.20
2018-09-04T00:53:20.437Z,78.20
2018-09-04T00:55:49.203Z,77.50
2018-09-04T00:58:17.848Z,77.80
2018-09-04T01:00:46.838Z,77.90
2018-09-04T01:03:15.519Z,77.90
2018-09-04T01:05:44.288Z,78.10
2018-09-04T01:08:13.045Z,78.40
2018-09-04T01:10:41.755Z,78.70
2018-09-04T01:13:10.413Z,78.70
2018-09-04T01:15:39.076Z,79.00
2018-09-04T01:18:07.739Z,78.70
2018-09-04T01:20:36.449Z,78.80
2018-09-04T01:23:05.184Z,78.70
2018-09-04T01:25:33.823Z,79.00
2018-09-04T01:28:02.462Z,79.10
2018-09-04T01:30:31.097Z,79.50
2018-09-04T01:32:59.715Z,79.90
2018-09-04T01:35:28.400Z,79.90
2018-09-04T01:37:57.063Z,79.80
2018-09-04T01:40:25.729Z,80.40
2018-09-04T01:42:54.473Z,80.50
2018-09-04T01:45:23.128Z,80.60
2018-09-04T01:47:51.741Z,81.00
2018-09-04T01:50:20.380Z,81.40
2018-09-04T01:52:49.033Z,81.40
2018-09-04T01:55:17.681Z,81.60
2018-09-04T01:57:46.332Z,81.70
2018-09-04T02:00:14.964Z,81.80
2018-09-04T02:02:43.584Z,82.00
2018-09-04T02:05:12.237Z,82.00
2018-09-04T02:07:40.900Z,82.10
2018-09-04T02:10:09.686Z,82.20
2018-09-04T02:12:38.336Z,82.00
2018-09-04T02:15:07.273Z,80.90
2018-09-04T02:17:35.933Z,79.90
2018-09-04T02:20:04.775Z,79.40
2018-09-04T02:22:33.452Z,79.20
2018-09-04T02:25:02.120Z,79.60
2018-09-04T02:27:30.781Z,80.00
2018-09-04T02:29:59.418Z,80.20
2018-09-04T02:32:28.064Z,80.20
2018-09-04T02:34:56.731Z,79.70
2018-09-04T02:37:25.404Z,79.40
2018-09-04T02:39:54.065Z,79.10
2018-09-04T02:42:22.693Z,79.50
2018-09-04T02:44:51.392Z,79.80
2018-09-04T02:47:20.069Z,79.40
2018-09-04T02:49:48.792Z,79.50
2018-09-04T02:52:17.467Z,79.70
2018-09-04T02:54:46.103Z,80.20
2018-09-04T02:57:14.748Z,81.10
2018-09-04T02:59:43.380Z,81.90
2018-09-04T03:02:12.090Z,82.50
2018-09-04T03:04:40.734Z,83.00
2018-09-04T03:07:09.424Z,83.90
2018-09-04T03:09:38.135Z,84.00
2018-09-04T03:12:06.913Z,84.30
2018-09-04T03:14:35.608Z,84.50
2018-09-04T03:17:04.273Z,84.50
2018-09-04T03:19:33.016Z,84.30
2018-09-04T03:22:01.665Z,84.20
2018-09-04T03:24:30.340Z,84.90
2018-09-04T03:26:59.058Z,84.50
2018-09-04T03:29:27.831Z,84.60
2018-09-04T03:31:56.476Z,84.90
2018-09-04T03:34:25.105Z,85.20
2018-09-04T03:36:53.900Z,85.50
2018-09-04T03:39:22.559Z,85.80
2018-09-04T03:41:51.190Z,86.00
2018-09-04T03:44:19.845Z,86.20
2018-09-04T03:46:48.893Z,86.40
2018-09-04T03:49:17.540Z,85.50
2018-09-04T03:51:46.201Z,85.00
2018-09-04T03:54:14.850Z,84.60
2018-09-04T03:56:43.504Z,84.50
2018-09-04T03:59:12.137Z,84.50
2018-09-04T04:01:40.790Z,84.50
2018-09-04T04:04:09.485Z,84.70
2018-09-04T04:06:38.181Z,84.60
2018-09-04T04:09:08.786Z,84.10
2018-09-04T04:11:37.420Z,83.80
2018-09-04T04:14:06.253Z,83.60
2018-09-04T04:16:34.938Z,83.60
2018-09-04T04:19:03.631Z,83.70
2018-09-04T04:21:32.280Z,84.10
2018-09-04T04:24:00.951Z,84.40
2018-09-04T04:26:29.657Z,84.90
2018-09-04T04:28:58.431Z,84.90
2018-09-04T04:31:27.034Z,85.20
2018-09-04T04:33:55.637Z,85.20
2018-09-04T04:36:24.231Z,85.40
2018-09-04T04:38:52.843Z,85.10
2018-09-04T04:41:21.451Z,85.00
2018-09-04T04:43:50.080Z,84.70
2018-09-04T04:46:18.731Z,84.50
2018-09-04T04:48:47.336Z,84.00
2018-09-04T04:51:16.174Z,84.00
2018-09-04T04:53:44.808Z,83.60
2018-09-04T04:56:13.424Z,83.90
2018-09-04T04:58:42.032Z,84.60
2018-09-04T05:01:10.811Z,84.80
2018-09-04T05:03:39.440Z,85.10
2018-09-04T05:06:08.036Z,85.40
2018-09-04T05:08:36.640Z,85.80
2018-09-04T05:11:05.354Z,85.80
2018-09-04T05:13:33.954Z,86.00
2018-09-04T05:16:02.572Z,86.40
2018-09-04T05:18:31.207Z,85.80
2018-09-04T05:20:59.948Z,85.30
2018-09-04T05:23:28.561Z,84.60
2018-09-04T05:25:57.199Z,84.40
2018-09-04T05:28:25.856Z,84.30
2018-09-04T05:30:55.515Z,84.40
2018-09-04T05:33:44.806Z,84.60
2018-09-04T05:36:13.743Z,85.10
2018-09-04T05:38:42.363Z,85.30
2018-09-04T05:41:11.029Z,85.50
2018-09-04T05:43:52.009Z,85.60
2018-09-04T05:46:30.404Z,85.70
2018-09-04T05:48:59.665Z,86.00
2018-09-04T05:51:28.268Z,87.00
2018-09-04T05:53:57.196Z,86.70
2018-09-04T05:56:25.933Z,86.70
2018-09-04T05:58:54.643Z,86.70
2018-09-04T06:01:23.398Z,87.00
2018-09-04T06:03:52.040Z,87.40
2018-09-04T06:06:20.648Z,87.70
2018-09-04T06:08:49.516Z,87.70
2018-09-04T06:11:18.229Z,87.70
2018-09-04T06:13:46.873Z,88.30
2018-09-04T06:16:15.596Z,89.00
2018-09-04T06:18:44.207Z,89.20
2018-09-04T06:21:12.833Z,89.10
2018-09-04T06:23:41.456Z,89.30
2018-09-04T06:26:10.224Z,89.60
2018-09-04T06:28:38.844Z,90.10
2018-09-04T06:31:07.496Z,90.00
2018-09-04T06:33:36.380Z,90.10
2018-09-04T06:36:05.545Z,90.20
2018-09-04T06:38:34.197Z,90.20
2018-09-04T06:41:02.933Z,89.00
2018-09-04T06:43:31.575Z,87.60
2018-09-04T06:46:00.269Z,85.50
2018-09-04T06:48:28.904Z,83.70
2018-09-04T06:50:57.519Z,81.00
2018-09-04T06:53:26.222Z,79.40
2018-09-04T06:55:54.908Z,77.70
2018-09-04T06:58:23.596Z,76.20
2018-09-04T07:00:52.222Z,74.20
2018-09-04T07:03:20.814Z,72.70
2018-09-04T07:05:49.491Z,71.90
2018-09-04T07:08:18.089Z,70.10
2018-09-04T07:10:46.701Z,68.30
2018-09-04T07:13:15.324Z,67.10
2018-09-04T07:15:43.928Z,65.30
2018-09-04T07:18:12.529Z,63.50
2018-09-04T07:20:41.296Z,62.70
2018-09-04T07:23:10.008Z,62.50
2018-09-04T07:25:38.623Z,64.00
2018-09-04T07:28:07.240Z,62.70
2018-09-04T07:30:36.003Z,62.40
2018-09-04T07:33:04.665Z,62.40
2018-09-04T07:35:35.433Z,62.20
2018-09-04T07:38:04.204Z,61.90
2018-09-04T07:40:32.813Z,61.80
2018-09-04T07:43:01.511Z,61.20
2018-09-04T07:45:30.226Z,61.00
2018-09-04T07:47:58.879Z,61.00
2018-09-04T07:50:27.528Z,59.90
2018-09-04T07:52:56.207Z,59.20
2018-09-04T07:55:24.844Z,58.80
2018-09-04T07:57:53.543Z,57.60
2018-09-04T08:00:22.224Z,57.70
2018-09-04T08:02:50.909Z,57.70
2018-09-04T08:05:19.580Z,56.70
2018-09-04T08:07:48.260Z,56.30
2018-09-04T08:10:17.150Z,56.00
2018-09-04T08:12:45.820Z,55.60
2018-09-04T08:15:14.505Z,55.50
2018-09-04T08:17:43.219Z,56.20
2018-09-04T08:20:11.889Z,55.90
2018-09-04T08:22:40.535Z,55.30
2018-09-04T08:25:09.194Z,54.60
2018-09-04T08:27:37.889Z,54.40
2018-09-04T08:30:06.592Z,54.30
2018-09-04T08:32:35.244Z,54.20
2018-09-04T08:35:04.000Z,54.40
2018-09-04T08:37:32.625Z,53.70
2018-09-04T08:40:01.338Z,53.40
2018-09-04T08:42:30.036Z,53.20
2018-09-04T08:44:58.666Z,52.30
2018-09-04T08:47:27.300Z,51.90
2018-09-04T08:49:55.996Z,51.40
2018-09-04T08:52:24.638Z,51.20
2018-09-04T08:54:53.413Z,51.00
2018-09-04T08:57:22.120Z,50.20
2018-09-04T08:59:50.741Z,50.60
2018-09-04T09:02:19.564Z,50.30
2018-09-04T09:04:48.206Z,49.90
2018-09-04T09:07:16.996Z,49.40
2018-09-04T09:09:45.706Z,49.50
2018-09-04T09:12:14.399Z,49.20
2018-09-04T09:14:43.045Z,48.70
2018-09-04T09:17:11.684Z,48.40
2018-09-04T09:19:40.336Z,47.90
2018-09-04T09:22:09.029Z,47.70
2018-09-04T09:24:37.720Z,47.90
2018-09-04T09:27:06.498Z,47.10
2018-09-04T09:29:35.155Z,46.70
2018-09-04T09:32:03.812Z,46.10
2018-09-04T09:34:32.488Z,46.20
2018-09-04T09:37:01.826Z,46.70
2018-09-04T09:39:30.376Z,46.20
2018-09-04T09:41:59.017Z,45.80
2018-09-04T09:44:27.666Z,45.10
2018-09-04T09:47:00.833Z,44.40
2018-09-04T09:49:30.353Z,45.30
2018-09-04T09:51:59.095Z,44.40
2018-09-04T09:54:27.912Z,44.20
2018-09-04T09:56:56.590Z,44.10
2018-09-04T09:59:25.270Z,43.90
2018-09-04T10:01:59.251Z,43.50
2018-09-04T10:04:27.952Z,43.70
2018-09-04T10:06:56.618Z,43.00
2018-09-04T10:09:25.279Z,42.10
2018-09-04T10:11:54.077Z,40.40
2018-09-04T10:14:22.791Z,40.40
2018-09-04T10:16:51.626Z,40.00
2018-09-04T10:19:20.264Z,39.50
2018-09-04T10:21:48.945Z,39.50
2018-09-04T10:24:17.608Z,39.40
2018-09-04T10:26:46.402Z,39.10
2018-09-04T10:29:15.081Z,38.60
2018-09-04T10:31:43.735Z,38.90
2018-09-04T10:34:14.360Z,38.20
2018-09-04T10:36:43.569Z,38.00
2018-09-04T10:39:17.514Z,37.50
2018-09-04T10:41:46.164Z,37.30
2018-09-04T10:44:14.916Z,37.50
2018-09-04T10:46:43.620Z,37.40
2018-09-04T10:49:12.269Z,37.50
2018-09-04T10:51:40.947Z,37.00
2018-09-04T10:54:09.716Z,37.00
2018-09-04T10:56:38.733Z,36.90
2018-09-04T10:59:07.571Z,36.70
2018-09-04T11:01:36.219Z,36.70
2018-09-04T11:04:04.895Z,36.90
2018-09-04T11:06:33.532Z,36.20
2018-09-04T11:09:02.327Z,36.20
2018-09-04T11:11:30.997Z,36.50
2018-09-04T11:13:59.655Z,36.50
2018-09-04T11:16:28.349Z,36.40
2018-09-04T11:18:56.997Z,36.60
2018-09-04T11:21:25.690Z,36.90
2018-09-04T11:23:54.322Z,36.30
2018-09-04T11:26:23.005Z,36.60
2018-09-04T11:28:54.488Z,36.90
2018-09-04T11:31:23.180Z,36.60
2018-09-04T11:33:51.937Z,36.10
2018-09-04T11:36:20.567Z,35.50
2018-09-04T11:38:49.216Z,35.20
2018-09-04T11:41:17.905Z,34.80
2018-09-04T11:43:47.516Z,34.80
2018-09-04T11:46:16.181Z,35.00
2018-09-04T11:48:44.889Z,34.20
2018-09-04T11:51:13.657Z,34.70
2018-09-04T11:53:42.287Z,34.30
2018-09-04T11:56:11.060Z,34.70
2018-09-04T11:58:39.747Z,35.50
2018-09-04T12:01:11.296Z,35.60
2018-09-04T12:03:40.055Z,36.50
2018-09-04T12:06:08.701Z,37.30
2018-09-04T12:08:37.354Z,36.80
2018-09-04T12:11:06.016Z,36.60
2018-09-04T12:13:34.665Z,36.30
2018-09-04T12:16:03.358Z,35.70
2018-09-04T12:18:32.017Z,35.50
2018-09-04T12:21:05.910Z,35.30
2018-09-04T12:23:34.482Z,34.90
2018-09-04T12:26:04.564Z,34.60
2018-09-04T12:28:33.333Z,33.80
2018-09-04T12:31:02.305Z,34.10
2018-09-04T12:33:30.977Z,34.20
2018-09-04T12:35:59.664Z,35.10
2018-09-04T12:38:35.212Z,34.40
2018-09-04T12:41:05.941Z,34.30
2018-09-04T12:43:34.739Z,34.40
2018-09-04T12:46:03.402Z,34.40
2018-09-04T12:48:32.124Z,34.40
2018-09-04T12:51:01.906Z,34.80
2018-09-04T12:53:31.432Z,35.20
2018-09-04T12:56:00.225Z,35.30
2018-09-04T12:58:28.910Z,35.20
2018-09-04T13:00:58.103Z,34.60
2018-09-04T13:03:27.822Z,34.80
2018-09-04T13:05:56.577Z,34.70
2018-09-04T13:08:27.052Z,34.70
2018-09-04T13:10:55.708Z,34.80
2018-09-04T13:13:24.418Z,34.30
2018-09-04T13:15:54.808Z,33.90
2018-09-04T13:18:23.867Z,34.00
2018-09-04T13:20:52.668Z,33.90
2018-09-04T13:23:21.322Z,33.80
2018-09-04T13:25:49.986Z,33.40
2018-09-04T13:28:18.748Z,33.40
2018-09-04T13:30:47.487Z,33.90
2018-09-04T13:33:16.172Z,34.30
2018-09-04T13:35:44.829Z,35.00
2018-09-04T13:38:13.495Z,35.50
2018-09-04T13:40:42.137Z,35.60
2018-09-04T13:43:10.776Z,35.20
2018-09-04T13:45:39.464Z,35.20
2018-09-04T13:48:08.118Z,35.30
2018-09-04T13:50:36.841Z,34.80
2018-09-04T13:53:05.509Z,34.40
2018-09-04T13:55:34.165Z,34.60
2018-09-04T13:58:02.825Z,35.00
2018-09-04T14:00:31.602Z,35.10
2018-09-04T14:03:00.207Z,35.00
2018-09-04T14:05:29.272Z,35.40
2018-09-04T14:07:57.964Z,35.40
2018-09-04T14:10:26.636Z,35.60
2018-09-04T14:12:55.251Z,35.90
2018-09-04T14:15:24.006Z,36.20
2018-09-04T14:17:52.644Z,36.40
2018-09-04T14:20:21.272Z,36.50
2018-09-04T14:22:49.881Z,36.80
2018-09-04T14:25:18.540Z,37.10
2018-09-04T14:27:47.202Z,37.30
2018-09-04T14:30:16.243Z,37.00
2018-09-04T14:32:44.531Z,37.00
2018-09-04T14:35:13.936Z,37.20
2018-09-04T14:37:42.569Z,37.00
2018-09-04T14:40:11.176Z,37.10
2018-09-04T14:42:39.793Z,37.20
2018-09-04T14:45:08.440Z,37.50
2018-09-04T14:47:37.116Z,37.50
2018-09-04T14:50:06.089Z,37.70
2018-09-04T14:52:34.719Z,37.50
2018-09-04T14:55:03.337Z,37.90
2018-09-04T14:57:31.966Z,37.80
2018-09-04T15:00:00.624Z,37.60
2018-09-04T15:02:29.256Z,37.80
2018-09-04T15:04:57.875Z,38.10
2018-09-04T15:07:26.524Z,38.30
2018-09-04T15:09:55.549Z,38.50
2018-09-04T15:12:24.160Z,38.70
2018-09-04T15:14:52.795Z,38.70
2018-09-04T15:17:21.396Z,38.70
2018-09-04T15:19:50.021Z,38.60
2018-09-04T15:22:18.632Z,38.60
2018-09-04T15:24:47.244Z,38.40
2018-09-04T15:27:15.860Z,38.70
2018-09-04T15:29:44.485Z,39.10
2018-09-04T15:32:13.092Z,39.40
2018-09-04T15:34:41.701Z,39.90
2018-09-04T15:37:10.316Z,39.70
2018-09-04T15:39:38.992Z,40.00
2018-09-04T15:42:07.600Z,40.10
2018-09-04T15:44:36.310Z,40.30
2018-09-04T15:47:05.025Z,40.40
2018-09-04T15:49:39.112Z,40.40
2018-09-04T15:52:07.778Z,40.70
2018-09-04T15:54:36.409Z,41.10
2018-09-04T15:59:41.188Z,41.50
2018-09-04T16:02:09.867Z,41.90
2018-09-04T16:04:38.516Z,42.00
2018-09-04T16:07:07.371Z,41.70
2018-09-04T16:09:36.087Z,41.50
2018-09-04T16:12:04.692Z,41.80
2018-09-04T16:14:33.359Z,42.00
2018-09-04T16:17:03.796Z,42.00
2018-09-04T16:19:33.108Z,41.80
2018-09-04T16:22:01.757Z,42.00
2018-09-04T16:24:30.429Z,42.30
2018-09-04T16:26:59.080Z,42.30
2018-09-04T16:30:30.596Z,42.40
2018-09-04T16:32:59.481Z,42.20
2018-09-04T16:35:28.169Z,41.80
2018-09-04T16:37:56.824Z,41.90
2018-09-04T16:40:25.611Z,41.80
2018-09-04T16:42:54.259Z,41.70
2018-09-04T16:45:22.888Z,41.40
2018-09-04T16:47:51.531Z,41.40
2018-09-04T16:50:20.156Z,41.20
2018-09-04T16:52:48.791Z,41.50
2018-09-04T16:55:17.428Z,41.10
2018-09-04T16:57:46.074Z,41.20
2018-09-04T17:00:14.735Z,40.80
2018-09-04T17:02:43.484Z,41.80
2018-09-04T17:05:12.300Z,41.50
2018-09-04T17:07:40.889Z,41.50
2018-09-04T17:10:09.532Z,41.50
2018-09-04T17:12:38.352Z,41.60
2018-09-04T17:15:07.159Z,41.60
2018-09-04T17:17:35.926Z,42.50
2018-09-04T17:20:04.640Z,42.40
2018-09-04T17:22:33.280Z,42.90
2018-09-04T17:25:01.910Z,43.20
2018-09-04T17:27:30.544Z,43.60
2018-09-04T17:29:59.217Z,44.00
2018-09-04T17:32:27.840Z,44.40
2018-09-04T17:34:56.515Z,45.00
2018-09-04T17:37:25.120Z,45.20
2018-09-04T17:39:53.876Z,45.70
2018-09-04T17:42:22.517Z,46.10
2018-09-04T17:44:51.396Z,46.20
2018-09-04T17:47:20.044Z,46.40
2018-09-04T17:49:48.668Z,46.70
2018-09-04T17:52:17.289Z,46.70
2018-09-04T17:54:45.983Z,46.80
2018-09-04T17:57:14.672Z,47.00
2018-09-04T17:59:43.328Z,47.60
2018-09-04T18:02:12.002Z,47.70
2018-09-04T18:04:40.630Z,48.00
2018-09-04T18:07:09.311Z,48.20
2018-09-04T18:09:37.960Z,48.60
2018-09-04T18:12:06.621Z,48.80
2018-09-04T18:14:35.269Z,49.00
2018-09-04T18:17:03.976Z,49.30
2018-09-04T18:19:32.708Z,49.20
2018-09-04T18:22:01.486Z,49.40
2018-09-04T18:24:30.302Z,49.70
2018-09-04T18:26:59.064Z,50.10
2018-09-04T18:29:27.678Z,50.60
2018-09-04T18:31:56.302Z,51.30
2018-09-04T18:34:25.081Z,51.50
2018-09-04T18:36:53.700Z,51.80
2018-09-04T18:39:22.343Z,52.40
2018-09-04T18:41:51.036Z,52.80
2018-09-04T18:44:19.649Z,53.20
2018-09-04T18:46:48.281Z,53.40
2018-09-04T18:49:16.899Z,53.40
2018-09-04T18:51:53.500Z,53.70
2018-09-04T18:54:29.788Z,54.50
2018-09-04T18:56:58.488Z,55.70
2018-09-04T18:59:27.902Z,56.40
2018-09-04T19:01:57.480Z,57.30
2018-09-04T19:04:26.233Z,57.80
2018-09-04T19:06:54.942Z,58.20
2018-09-04T19:09:23.639Z,58.50
2018-09-04T19:11:52.271Z,57.40
2018-09-04T19:14:20.941Z,57.00
2018-09-04T19:16:49.572Z,57.00
2018-09-04T19:19:18.257Z,56.50
2018-09-04T19:21:46.890Z,56.70
2018-09-04T19:24:16.174Z,57.30
2018-09-04T19:26:44.826Z,58.10
2018-09-04T19:29:14.093Z,58.60
2018-09-04T19:31:42.727Z,59.30
2018-09-04T19:34:11.364Z,59.70
2018-09-04T19:36:42.426Z,59.70
2018-09-04T19:39:14.476Z,59.50
2018-09-04T19:41:45.113Z,59.50
2018-09-04T19:44:22.150Z,59.30
2018-09-04T19:46:50.825Z,59.60
2018-09-04T19:49:21.447Z,60.10
2018-09-04T19:51:50.144Z,60.90
2018-09-04T19:54:18.772Z,61.40
2018-09-04T19:56:48.528Z,61.40
2018-09-04T19:59:18.659Z,61.70
2018-09-04T20:01:49.315Z,62.40
2018-09-04T20:04:17.975Z,63.50
2018-09-04T20:06:50.133Z,64.00
2018-09-04T20:09:25.237Z,64.10
2018-09-04T20:12:00.894Z,63.80
2018-09-04T20:14:35.556Z,64.10
2018-09-04T20:17:05.971Z,64.10
2018-09-04T20:19:36.956Z,64.00
2018-09-04T20:22:10.881Z,63.80
2018-09-04T20:24:41.117Z,64.50
2018-09-04T20:27:11.928Z,65.10
2018-09-04T20:29:43.314Z,65.30
2018-09-04T20:32:14.381Z,66.00
2018-09-04T20:34:43.299Z,66.20
2018-09-04T20:37:14.184Z,66.00
2018-09-04T20:39:50.570Z,65.60
2018-09-04T20:42:20.268Z,64.70
2018-09-04T20:44:50.500Z,63.80
2018-09-04T20:50:07.733Z,64.90
2018-09-04T20:52:36.416Z,66.00
2018-09-04T20:55:05.084Z,66.50
2018-09-04T20:57:33.343Z,67.20
2018-09-04T21:00:14.568Z,67.30
2018-09-04T21:02:53.992Z,67.30
2018-09-04T21:05:33.497Z,67.60
2018-09-04T21:08:23.497Z,66.50
2018-09-04T21:10:52.807Z,66.80
2018-09-04T21:13:21.522Z,66.70
2018-09-04T21:15:50.176Z,67.00
2018-09-04T21:18:18.964Z,67.90
2018-09-04T21:20:47.637Z,68.60
2018-09-04T21:23:16.416Z,68.80
2018-09-04T21:25:45.078Z,69.00
2018-09-04T21:28:13.748Z,69.20
2018-09-04T21:30:42.375Z,69.50
2018-09-04T21:33:11.121Z,69.50
2018-09-04T21:35:39.793Z,69.70
2018-09-04T21:38:08.573Z,69.20
2018-09-04T21:40:37.211Z,68.80
2018-09-04T21:43:05.933Z,67.80
2018-09-04T21:45:34.578Z,67.60
2018-09-04T21:48:03.252Z,69.70
2018-09-04T21:50:31.920Z,69.60
2018-09-04T21:53:00.537Z,70.00
2018-09-04T21:55:29.233Z,70.50
2018-09-04T21:57:57.871Z,70.50
2018-09-04T22:00:27.715Z,70.10
2018-09-04T22:02:57.618Z,69.40
2018-09-04T22:05:27.440Z,69.80
2018-09-04T22:07:57.173Z,70.70
2018-09-04T22:10:26.862Z,70.90
2018-09-04T22:12:55.945Z,71.20
2018-09-04T22:15:24.900Z,71.40
2018-09-04T22:17:53.569Z,71.00
2018-09-04T22:20:22.235Z,70.40
2018-09-04T22:22:50.888Z,71.00
2018-09-04T22:25:19.636Z,71.40
2018-09-04T22:27:48.305Z,70.90
2018-09-04T22:30:17.175Z,70.90
2018-09-04T22:32:45.904Z,71.30
2018-09-04T22:35:14.554Z,71.90
2018-09-04T22:37:43.205Z,72.20
2018-09-04T22:40:11.864Z,72.70
2018-09-04T22:42:40.996Z,73.10
2018-09-04T22:45:09.995Z,73.60
2018-09-04T22:47:40.084Z,73.40
2018-09-04T22:50:13.978Z,73.10
2018-09-04T22:52:42.984Z,72.10
2018-09-04T22:55:13.211Z,72.00
2018-09-04T22:57:42.844Z,72.80
2018-09-04T23:00:12.656Z,73.80
2018-09-04T23:02:41.309Z,73.30
2018-09-04T23:05:10.060Z,73.40
2018-09-04T23:07:38.732Z,73.30
2018-09-04T23:10:07.553Z,73.20
2018-09-04T23:12:36.185Z,72.80
2018-09-04T23:15:05.031Z,72.50
2018-09-04T23:17:33.693Z,72.20
2018-09-04T23:20:02.335Z,71.90
2018-09-04T23:22:30.972Z,72.10
2018-09-04T23:24:59.633Z,73.00
2018-09-04T23:27:28.855Z,73.80
2018-09-04T23:29:57.495Z,74.10
2018-09-04T23:32:26.124Z,74.00
2018-09-04T23:34:54.760Z,74.30
2018-09-04T23:37:23.434Z,74.50
2018-09-04T23:39:52.140Z,75.10
2018-09-04T23:42:20.808Z,75.70
2018-09-04T23:44:49.435Z,75.90
2018-09-04T23:47:18.048Z,75.50
2018-09-04T23:49:46.677Z,74.70
2018-09-04T23:52:15.369Z,74.80
2018-09-04T23:54:44.028Z,75.30
2018-09-04T23:57:12.684Z,75.40
2018-09-04T23:59:41.376Z,75.50
